createdAt,value
2022-10-07T00:01:27.626Z,22.60
2022-10-07T00:03:29.990Z,21.33
2022-10-07T00:05:31.794Z,20.23
2022-10-07T00:07:33.639Z,18.95
2022-10-07T00:09:35.414Z,21.88
2022-10-07T00:11:37.418Z,22.50
2022-10-07T00:13:41.432Z,19.85
2022-10-07T00:15:43.251Z,22.75
2022-10-07T00:17:45.504Z,33.65
2022-10-07T00:19:47.762Z,27.23
2022-10-07T00:21:49.585Z,31.90
2022-10-07T00:23:51.838Z,33.13
2022-10-07T00:25:53.818Z,29.77
2022-10-07T00:27:55.607Z,34.03
2022-10-07T00:29:57.475Z,32.90
2022-10-07T00:31:59.489Z,33.72
2022-10-07T00:34:01.717Z,29.35
2022-10-07T00:36:27.645Z,26.98
2022-10-07T00:38:29.783Z,26.70
2022-10-07T00:40:31.528Z,27.23
2022-10-07T00:42:33.325Z,28.83
2022-10-07T00:44:35.088Z,28.65
2022-10-07T00:46:39.596Z,25.92
2022-10-07T00:48:42.810Z,28.42
2022-10-07T00:50:44.688Z,26.02
2022-10-07T00:52:51.664Z,27.73
2022-10-07T00:54:57.950Z,25.73
2022-10-07T00:56:59.958Z,26.17
2022-10-07T00:59:02.172Z,23.38
2022-10-07T01:01:04.113Z,28.00
2022-10-07T01:03:06.455Z,25.35
2022-10-07T01:05:09.881Z,23.63
2022-10-07T01:07:11.769Z,27.08
2022-10-07T01:09:14.517Z,25.58
2022-10-07T01:11:52.244Z,29.03
2022-10-07T01:13:56.804Z,21.83
2022-10-07T01:16:25.380Z,23.38
2022-10-07T01:18:38.863Z,23.55
2022-10-07T01:20:45.605Z,24.75
2022-10-07T01:23:14.728Z,25.27
2022-10-07T01:26:03.319Z,28.35
2022-10-07T01:28:09.677Z,28.52
2022-10-07T01:30:12.030Z,30.00
2022-10-07T01:32:21.999Z,26.63
2022-10-07T01:34:26.284Z,29.58
2022-10-07T01:36:28.529Z,26.10
2022-10-07T01:38:32.537Z,27.15
2022-10-07T01:40:51.293Z,25.75
2022-10-07T01:42:54.822Z,25.35
2022-10-07T01:44:58.812Z,23.65
2022-10-07T01:47:00.606Z,26.05
2022-10-07T01:49:02.612Z,26.88
2022-10-07T01:51:05.043Z,26.75
2022-10-07T01:53:15.625Z,28.80
2022-10-07T01:55:54.549Z,32.30
2022-10-07T01:58:08.074Z,45.80
2022-10-07T02:00:13.338Z,33.22
2022-10-07T02:02:36.294Z,31.90
2022-10-07T02:04:43.970Z,32.72
2022-10-07T02:07:11.636Z,29.58
2022-10-07T02:09:29.246Z,27.75
2022-10-07T02:11:36.136Z,27.55
2022-10-07T02:13:56.680Z,25.85
2022-10-07T02:16:27.773Z,28.42
2022-10-07T02:18:32.531Z,27.10
2022-10-07T02:20:38.162Z,30.48
2022-10-07T02:22:43.600Z,27.17
2022-10-07T02:24:48.006Z,25.90
2022-10-07T02:26:51.978Z,27.92
2022-10-07T02:28:57.142Z,23.85
2022-10-07T02:31:02.918Z,28.33
2022-10-07T02:33:07.392Z,25.75
2022-10-07T02:35:24.129Z,26.27
2022-10-07T02:37:33.693Z,26.55
2022-10-07T02:39:35.406Z,23.02
2022-10-07T02:41:58.752Z,25.27
2022-10-07T02:44:06.059Z,25.80
2022-10-07T02:46:15.444Z,23.05
2022-10-07T02:48:30.711Z,25.60
2022-10-07T02:50:38.932Z,25.85
2022-10-07T02:52:42.901Z,25.77
2022-10-07T02:54:51.887Z,27.45
2022-10-07T02:56:54.673Z,26.30
2022-10-07T02:58:58.680Z,27.93
2022-10-07T03:01:03.028Z,24.83
2022-10-07T03:03:05.741Z,23.40
2022-10-07T03:05:09.321Z,25.40
2022-10-07T03:09:13.001Z,23.58
2022-10-07T03:11:14.827Z,50.97
2022-10-07T03:13:16.617Z,22.10
2022-10-07T03:15:18.378Z,20.55
2022-10-07T03:17:20.452Z,49.95
2022-10-07T03:19:22.314Z,34.97
2022-10-07T03:21:24.029Z,25.52
2022-10-07T03:23:27.228Z,47.45
2022-10-07T03:25:29.156Z,28.70
2022-10-07T03:27:30.879Z,27.08
2022-10-07T03:29:33.815Z,30.42
2022-10-07T03:31:35.842Z,23.08
2022-10-07T03:33:38.353Z,23.15
2022-10-07T03:35:40.208Z,22.80
2022-10-07T03:37:42.735Z,23.20
2022-10-07T03:39:44.610Z,31.40
2022-10-07T03:41:46.456Z,26.77
2022-10-07T03:43:48.396Z,25.67
2022-10-07T03:45:50.843Z,28.40
2022-10-07T03:47:52.678Z,30.92
2022-10-07T03:49:55.209Z,28.13
2022-10-07T03:51:57.069Z,27.55
2022-10-07T03:53:59.537Z,25.73
2022-10-07T03:56:01.302Z,25.95
2022-10-07T03:58:02.995Z,26.02
2022-10-07T04:00:05.111Z,20.08
2022-10-07T04:02:06.909Z,20.90
2022-10-07T04:04:08.632Z,19.58
2022-10-07T04:06:10.592Z,19.80
2022-10-07T04:08:12.933Z,22.80
2022-10-07T04:10:16.463Z,21.38
2022-10-07T04:12:18.496Z,31.58
2022-10-07T04:14:20.309Z,23.73
2022-10-07T04:16:22.088Z,24.08
2022-10-07T04:18:24.145Z,31.95
2022-10-07T04:20:26.316Z,31.88
2022-10-07T04:22:28.106Z,28.80
2022-10-07T04:24:29.850Z,26.42
2022-10-07T04:26:31.729Z,23.42
2022-10-07T04:28:33.545Z,28.35
2022-10-07T04:30:39.817Z,22.88
2022-10-07T04:32:41.621Z,30.17
2022-10-07T04:34:43.336Z,23.38
2022-10-07T04:36:45.212Z,28.15
2022-10-07T04:38:50.596Z,23.70
2022-10-07T04:40:52.281Z,22.35
2022-10-07T04:42:54.088Z,24.77
2022-10-07T04:44:55.968Z,23.38
2022-10-07T04:46:57.738Z,20.35
2022-10-07T04:48:59.625Z,21.38
2022-10-07T04:51:06.789Z,25.63
2022-10-07T04:53:10.058Z,25.48
2022-10-07T04:55:12.066Z,26.10
2022-10-07T04:57:13.863Z,24.70
2022-10-07T04:59:15.546Z,25.63
2022-10-07T05:01:17.525Z,31.08
2022-10-07T05:03:21.722Z,29.20
2022-10-07T05:05:23.409Z,29.83
2022-10-07T05:07:25.794Z,29.80
2022-10-07T05:09:27.885Z,28.77
2022-10-07T05:11:29.610Z,25.00
2022-10-07T05:13:31.367Z,23.58
2022-10-07T05:15:33.655Z,25.80
2022-10-07T05:17:35.415Z,25.70
2022-10-07T05:19:37.314Z,28.52
2022-10-07T05:21:39.251Z,24.15
2022-10-07T05:23:40.968Z,26.35
2022-10-07T05:25:43.085Z,24.92
2022-10-07T05:27:45.054Z,24.23
2022-10-07T05:29:46.919Z,23.10
2022-10-07T05:31:48.848Z,23.35
2022-10-07T05:33:50.703Z,23.35
2022-10-07T05:35:52.428Z,17.95
2022-10-07T05:37:54.618Z,23.48
2022-10-07T05:39:56.636Z,20.90
2022-10-07T05:41:58.483Z,21.23
2022-10-07T05:44:00.246Z,33.75
2022-10-07T05:46:21.802Z,32.72
2022-10-07T05:48:23.624Z,38.40
2022-10-07T05:50:25.908Z,41.30
2022-10-07T05:52:28.014Z,35.78
2022-10-07T05:54:29.722Z,31.20
2022-10-07T05:56:31.534Z,31.58
2022-10-07T05:58:33.732Z,24.08
2022-10-07T06:00:35.409Z,23.23
2022-10-07T06:02:37.432Z,23.63
2022-10-07T06:04:39.520Z,20.75
2022-10-07T06:06:41.235Z,21.48
2022-10-07T06:08:43.433Z,19.52
2022-10-07T06:10:49.122Z,21.40
2022-10-07T06:12:50.852Z,23.77
2022-10-07T06:14:52.754Z,27.63
2022-10-07T06:16:54.618Z,25.88
2022-10-07T06:18:56.894Z,31.30
2022-10-07T06:21:00.847Z,25.63
2022-10-07T06:23:02.827Z,26.85
2022-10-07T06:25:04.929Z,24.55
2022-10-07T06:27:06.676Z,26.05
2022-10-07T06:29:09.152Z,22.55
2022-10-07T06:31:13.686Z,24.52
2022-10-07T06:33:17.271Z,20.40
2022-10-07T06:35:19.317Z,20.15
2022-10-07T06:37:21.025Z,20.13
2022-10-07T06:39:22.977Z,22.70
2022-10-07T06:41:24.738Z,19.27
2022-10-07T06:43:27.746Z,20.83
2022-10-07T06:45:33.726Z,24.05
2022-10-07T06:47:35.662Z,24.88
2022-10-07T06:49:37.344Z,20.13
2022-10-07T06:51:39.080Z,21.10
2022-10-07T06:53:41.214Z,22.98
2022-10-07T06:55:42.888Z,24.23
2022-10-07T06:57:46.232Z,23.50
2022-10-07T07:01:49.865Z,26.00
2022-10-07T07:03:51.751Z,24.00
2022-10-07T07:05:54.787Z,20.98
2022-10-07T07:07:57.098Z,23.55
2022-10-07T07:09:58.803Z,20.95
2022-10-07T07:12:00.636Z,21.27
2022-10-07T07:14:05.615Z,24.58
2022-10-07T07:16:08.397Z,23.25
2022-10-07T07:18:11.261Z,19.40
2022-10-07T07:20:12.991Z,21.63
2022-10-07T07:22:14.887Z,23.10
2022-10-07T07:24:16.875Z,17.50
2022-10-07T07:26:18.929Z,20.50
2022-10-07T07:28:21.035Z,18.92
2022-10-07T07:30:22.898Z,20.02
2022-10-07T07:32:24.856Z,23.67
2022-10-07T07:34:26.770Z,28.23
2022-10-07T07:36:30.589Z,37.83
2022-10-07T07:38:32.277Z,25.45
2022-10-07T07:40:37.173Z,24.23
2022-10-07T07:42:39.074Z,24.02
2022-10-07T07:44:41.066Z,22.95
2022-10-07T07:46:45.583Z,19.23
2022-10-07T07:48:48.179Z,18.52
2022-10-07T07:50:49.872Z,19.50
2022-10-07T07:52:56.535Z,23.48
2022-10-07T07:54:59.175Z,20.25
2022-10-07T07:57:00.860Z,23.75
2022-10-07T07:59:03.552Z,23.13
2022-10-07T08:01:08.439Z,20.08
2022-10-07T08:03:10.137Z,14.48
2022-10-07T08:05:11.918Z,18.15
2022-10-07T08:07:13.860Z,16.58
2022-10-07T08:09:15.895Z,16.67
2022-10-07T08:11:20.047Z,17.98
2022-10-07T08:13:21.887Z,18.00
2022-10-07T08:15:23.592Z,15.10
2022-10-07T08:17:25.302Z,11.02
2022-10-07T08:19:27.210Z,11.38
2022-10-07T08:21:29.574Z,14.00
2022-10-07T08:23:31.368Z,11.68
2022-10-07T08:25:33.106Z,13.68
2022-10-07T08:27:34.820Z,12.63
2022-10-07T08:29:36.558Z,10.35
2022-10-07T08:31:38.314Z,9.25
2022-10-07T08:33:42.373Z,11.85
2022-10-07T08:35:48.809Z,12.38
2022-10-07T08:37:50.567Z,7.30
2022-10-07T08:39:52.269Z,12.95
2022-10-07T08:42:14.127Z,9.95
2022-10-07T08:44:18.043Z,12.07
2022-10-07T08:46:25.147Z,13.52
2022-10-07T08:48:34.207Z,11.73
2022-10-07T08:51:00.504Z,11.43
2022-10-07T08:53:06.286Z,9.88
2022-10-07T08:55:16.974Z,10.10
2022-10-07T08:57:32.266Z,10.68
2022-10-07T08:59:35.934Z,7.60
2022-10-07T09:03:55.475Z,8.05
2022-10-07T09:05:58.486Z,10.82
2022-10-07T09:08:06.671Z,8.35
2022-10-07T09:10:26.806Z,8.02
2022-10-07T09:12:40.521Z,7.50
2022-10-07T09:14:46.978Z,7.53
2022-10-07T09:16:50.776Z,10.85
2022-10-07T09:18:59.227Z,8.55
2022-10-07T09:21:05.208Z,6.40
2022-10-07T09:23:13.367Z,6.88
2022-10-07T09:25:26.950Z,7.40
2022-10-07T09:27:28.803Z,7.90
2022-10-07T09:29:30.921Z,13.50
2022-10-07T09:31:32.747Z,9.95
2022-10-07T09:33:42.185Z,7.20
2022-10-07T09:35:57.221Z,7.97
2022-10-07T09:38:05.237Z,6.95
2022-10-07T09:40:32.573Z,5.38
2022-10-07T09:42:38.959Z,9.00
2022-10-07T09:44:40.754Z,8.05
2022-10-07T09:46:51.332Z,8.07
2022-10-07T09:49:01.363Z,7.97
2022-10-07T09:51:17.763Z,5.80
2022-10-07T09:53:27.861Z,5.43
2022-10-07T09:55:42.946Z,4.80
2022-10-07T09:57:59.986Z,5.38
2022-10-07T10:00:13.968Z,6.07
2022-10-07T10:04:24.936Z,6.05
2022-10-07T10:06:26.763Z,9.82
2022-10-07T10:08:55.420Z,3.92
2022-10-07T10:10:59.903Z,8.02
2022-10-07T10:13:04.174Z,5.40
2022-10-07T10:15:22.843Z,7.15
2022-10-07T10:17:29.296Z,4.05
2022-10-07T10:19:36.368Z,6.18
2022-10-07T10:21:42.544Z,5.07
2022-10-07T10:23:48.073Z,3.75
2022-10-07T10:26:00.092Z,6.75
2022-10-07T10:28:11.506Z,8.05
2022-10-07T10:30:24.630Z,4.18
2022-10-07T10:32:48.163Z,8.37
2022-10-07T10:34:55.133Z,5.43
2022-10-07T10:37:26.113Z,6.65
2022-10-07T10:39:52.247Z,6.30
2022-10-07T10:41:58.215Z,7.13
2022-10-07T10:44:30.170Z,5.15
2022-10-07T10:47:10.780Z,5.38
2022-10-07T10:49:29.262Z,5.55
2022-10-07T10:51:50.249Z,4.78
2022-10-07T10:54:04.169Z,6.43
2022-10-07T10:58:49.675Z,5.25
2022-10-07T11:00:51.439Z,8.73
2022-10-07T11:03:31.307Z,8.68
2022-10-07T11:05:39.523Z,6.32
2022-10-07T11:07:51.260Z,3.55
2022-10-07T11:10:24.446Z,6.70
2022-10-07T11:12:44.902Z,5.68
2022-10-07T11:14:56.997Z,5.32
2022-10-07T11:17:05.191Z,3.65
2022-10-07T11:19:25.358Z,6.13
2022-10-07T11:21:36.519Z,7.85
2022-10-07T11:24:03.468Z,6.07
2022-10-07T11:26:17.156Z,5.80
2022-10-07T11:28:26.807Z,13.07
2022-10-07T11:30:35.556Z,7.50
2022-10-07T11:32:58.640Z,10.55
2022-10-07T11:35:21.940Z,8.50
2022-10-07T11:37:33.819Z,7.60
2022-10-07T11:39:39.678Z,3.17
2022-10-07T11:42:04.572Z,5.90
2022-10-07T11:44:14.820Z,4.10
2022-10-07T11:46:25.306Z,7.50
2022-10-07T11:48:39.034Z,5.20
2022-10-07T11:50:47.878Z,6.43
2022-10-07T11:52:54.048Z,6.38
2022-10-07T11:55:08.790Z,4.13
2022-10-07T11:57:26.189Z,4.25
2022-10-07T11:59:45.134Z,10.13
2022-10-07T12:01:50.251Z,7.00
2022-10-07T12:04:15.012Z,7.03
2022-10-07T12:06:16.976Z,4.32
2022-10-07T12:08:33.374Z,8.57
2022-10-07T12:10:35.426Z,3.50
2022-10-07T12:12:43.549Z,3.05
2022-10-07T12:14:59.846Z,4.30
2022-10-07T12:17:19.201Z,4.18
2022-10-07T12:19:23.641Z,2.70
2022-10-07T12:21:25.868Z,5.57
2022-10-07T12:23:27.506Z,3.67
2022-10-07T12:25:31.204Z,5.75
2022-10-07T12:27:34.833Z,5.78
2022-10-07T12:31:53.310Z,8.98
2022-10-07T12:33:58.941Z,8.15
2022-10-07T12:36:19.148Z,5.25
2022-10-07T12:38:23.790Z,5.45
2022-10-07T12:40:30.387Z,3.92
2022-10-07T12:42:32.309Z,9.07
2022-10-07T12:44:40.765Z,3.92
2022-10-07T12:46:58.507Z,6.32
2022-10-07T12:49:12.909Z,6.22
2022-10-07T12:51:30.495Z,6.35
2022-10-07T12:53:44.125Z,6.25
2022-10-07T12:55:53.322Z,4.10
2022-10-07T12:57:56.301Z,8.25
2022-10-07T13:00:19.435Z,5.88
2022-10-07T13:02:36.270Z,5.03
2022-10-07T13:04:47.243Z,5.45
2022-10-07T13:07:07.392Z,8.73
2022-10-07T13:09:43.432Z,7.80
2022-10-07T13:12:03.119Z,3.85
2022-10-07T13:14:19.891Z,5.85
2022-10-07T13:16:44.137Z,5.55
2022-10-07T13:21:02.432Z,8.18
2022-10-07T13:23:12.194Z,7.75
2022-10-07T13:25:17.184Z,3.90
2022-10-07T13:27:32.736Z,3.38
2022-10-07T13:29:34.720Z,4.82
2022-10-07T13:31:36.486Z,4.78
2022-10-07T13:33:38.320Z,5.75
2022-10-07T13:35:40.124Z,4.78
2022-10-07T13:37:46.154Z,6.72
2022-10-07T13:39:48.082Z,5.05
2022-10-07T13:41:53.832Z,4.57
2022-10-07T13:44:03.508Z,6.63
2022-10-07T13:46:09.231Z,5.97
2022-10-07T13:48:21.201Z,6.15
2022-10-07T13:50:26.859Z,4.72
2022-10-07T13:52:38.036Z,8.02
2022-10-07T13:54:39.828Z,5.63
2022-10-07T13:56:42.990Z,8.07
2022-10-07T13:58:45.449Z,7.05
2022-10-07T14:00:48.359Z,5.38
2022-10-07T14:02:51.012Z,7.20
2022-10-07T14:05:02.424Z,6.72
2022-10-07T14:07:13.598Z,3.78
2022-10-07T14:09:33.750Z,5.78
2022-10-07T14:11:35.599Z,5.60
2022-10-07T14:13:37.559Z,5.43
2022-10-07T14:15:46.632Z,4.13
2022-10-07T14:17:48.404Z,7.15
2022-10-07T14:19:57.029Z,6.50
2022-10-07T14:22:04.248Z,5.00
2022-10-07T14:24:09.834Z,6.32
2022-10-07T14:26:11.761Z,7.85
2022-10-07T14:28:28.651Z,9.70
2022-10-07T14:30:41.000Z,7.28
2022-10-07T14:32:43.416Z,4.80
2022-10-07T14:34:45.809Z,3.88
2022-10-07T14:37:03.432Z,5.57
2022-10-07T14:39:31.317Z,4.95
2022-10-07T14:41:33.050Z,6.80
2022-10-07T14:43:38.635Z,4.40
2022-10-07T14:45:40.445Z,4.30
2022-10-07T14:47:42.206Z,5.40
2022-10-07T14:49:43.986Z,6.32
2022-10-07T14:51:45.764Z,4.05
2022-10-07T14:53:52.240Z,4.30
2022-10-07T14:55:54.037Z,5.43
2022-10-07T14:57:55.795Z,8.95
2022-10-07T14:59:57.526Z,6.63
2022-10-07T15:01:59.407Z,4.53
2022-10-07T15:04:01.410Z,8.70
2022-10-07T15:06:03.373Z,21.05
2022-10-07T15:08:05.276Z,4.85
2022-10-07T15:10:13.997Z,9.75
2022-10-07T15:12:16.569Z,13.07
2022-10-07T15:14:18.398Z,48.13
2022-10-07T15:16:23.174Z,15.10
2022-10-07T15:18:24.944Z,15.07
2022-10-07T15:20:26.651Z,9.38
2022-10-07T15:22:28.420Z,9.77
2022-10-07T15:24:30.255Z,8.43
2022-10-07T15:26:31.980Z,7.47
2022-10-07T15:28:34.215Z,4.55
2022-10-07T15:30:39.405Z,6.40
2022-10-07T15:32:41.381Z,7.10
2022-10-07T15:34:43.165Z,7.18
2022-10-07T15:36:44.977Z,7.65
2022-10-07T15:38:46.657Z,6.82
2022-10-07T15:40:55.235Z,5.20
2022-10-07T15:42:57.344Z,7.78
2022-10-07T15:44:59.065Z,6.90
2022-10-07T15:47:01.021Z,12.48
2022-10-07T15:49:03.198Z,11.75
2022-10-07T15:51:04.965Z,10.60
2022-10-07T15:53:06.879Z,10.95
2022-10-07T15:55:08.940Z,11.70
2022-10-07T15:57:10.681Z,18.42
2022-10-07T15:59:12.664Z,14.95
2022-10-07T16:01:14.627Z,18.73
2022-10-07T16:03:16.380Z,13.48
2022-10-07T16:05:18.135Z,19.95
2022-10-07T16:07:19.961Z,22.10
2022-10-07T16:09:22.977Z,20.05
2022-10-07T16:11:26.124Z,30.25
2022-10-07T16:13:27.987Z,22.45
2022-10-07T16:15:29.723Z,25.55
2022-10-07T16:17:31.522Z,48.60
2022-10-07T16:19:33.419Z,33.88
2022-10-07T16:21:40.944Z,33.85
2022-10-07T16:23:46.249Z,26.40
2022-10-07T16:25:48.324Z,26.55
2022-10-07T16:27:50.025Z,23.38
2022-10-07T16:29:51.812Z,26.40
2022-10-07T16:31:58.164Z,26.55
2022-10-07T16:34:00.815Z,59.75
2022-10-07T16:36:13.404Z,84.85
2022-10-07T16:38:15.215Z,66.63
2022-10-07T16:40:16.913Z,45.20
2022-10-07T16:42:18.713Z,27.60
2022-10-07T16:44:21.220Z,35.00
2022-10-07T16:46:23.353Z,45.53
2022-10-07T16:48:25.185Z,96.72
2022-10-07T16:50:26.935Z,64.50
2022-10-07T16:52:28.657Z,43.03
2022-10-07T16:54:30.456Z,38.97
2022-10-07T16:56:34.481Z,37.30
2022-10-07T16:58:36.643Z,28.70
2022-10-07T17:00:38.615Z,34.55
2022-10-07T17:02:40.443Z,48.60
2022-10-07T17:04:42.148Z,59.33
2022-10-07T17:06:44.211Z,44.30
2022-10-07T17:08:48.474Z,45.58
2022-10-07T17:10:50.497Z,51.95
2022-10-07T17:12:52.330Z,68.55
2022-10-07T17:14:54.080Z,82.45
2022-10-07T17:16:57.831Z,79.15
2022-10-07T17:21:01.465Z,64.60
2022-10-07T17:23:03.235Z,46.05
2022-10-07T17:25:05.629Z,62.55
2022-10-07T17:27:07.866Z,60.47
2022-10-07T17:29:12.673Z,50.83
2022-10-07T17:31:14.621Z,58.95
2022-10-07T17:33:16.414Z,56.53
2022-10-07T17:35:18.142Z,64.22
2022-10-07T17:37:20.016Z,68.10
2022-10-07T17:39:21.868Z,48.85
2022-10-07T17:41:28.723Z,38.30
2022-10-07T17:43:30.520Z,39.33
2022-10-07T17:45:37.583Z,37.28
2022-10-07T17:47:39.279Z,53.88
2022-10-07T17:49:41.018Z,37.13
2022-10-07T17:51:43.421Z,67.05
2022-10-07T17:53:46.191Z,49.00
2022-10-07T17:55:51.786Z,38.90
2022-10-07T17:57:53.633Z,40.42
2022-10-07T17:59:55.336Z,39.15
2022-10-07T18:01:57.174Z,39.22
2022-10-07T18:04:01.545Z,35.05
2022-10-07T18:06:04.102Z,37.67
2022-10-07T18:08:05.976Z,36.60
2022-10-07T18:10:08.179Z,32.20
2022-10-07T18:12:09.894Z,37.83
2022-10-07T18:14:12.267Z,42.08
2022-10-07T18:16:14.097Z,49.92
2022-10-07T18:18:15.848Z,80.93
2022-10-07T18:20:24.524Z,67.68
2022-10-07T18:22:26.458Z,56.20
2022-10-07T18:24:29.094Z,51.28
2022-10-07T18:26:30.886Z,47.40
2022-10-07T18:28:36.576Z,44.40
2022-10-07T18:30:38.351Z,61.20
2022-10-07T18:32:40.223Z,58.65
2022-10-07T18:34:42.074Z,63.47
2022-10-07T18:36:43.819Z,60.72
2022-10-07T18:38:45.931Z,68.65
2022-10-07T18:40:47.813Z,83.70
2022-10-07T18:42:50.088Z,77.25
2022-10-07T18:44:51.851Z,81.75
2022-10-07T18:46:53.713Z,76.22
2022-10-07T18:48:55.512Z,80.82
2022-10-07T18:50:57.285Z,124.18
2022-10-07T18:52:59.139Z,99.63
2022-10-07T18:55:01.389Z,89.88
2022-10-07T18:57:03.189Z,72.90
2022-10-07T18:59:05.115Z,145.00
2022-10-07T19:01:11.077Z,104.00
2022-10-07T19:03:12.976Z,63.05
2022-10-07T19:05:14.891Z,60.22
2022-10-07T19:07:16.618Z,56.95
2022-10-07T19:09:20.788Z,67.50
2022-10-07T19:11:23.257Z,74.90
2022-10-07T19:13:25.013Z,91.35
2022-10-07T19:15:26.921Z,96.38
2022-10-07T19:17:28.663Z,98.20
2022-10-07T19:19:30.384Z,88.35
2022-10-07T19:21:33.122Z,91.55
2022-10-07T19:23:34.880Z,78.28
2022-10-07T19:25:41.873Z,67.82
2022-10-07T19:27:43.901Z,62.40
2022-10-07T19:29:45.922Z,53.05
2022-10-07T19:31:49.236Z,57.00
2022-10-07T19:33:55.606Z,54.42
2022-10-07T19:35:57.425Z,57.35
2022-10-07T19:37:59.890Z,60.67
2022-10-07T19:40:01.729Z,87.32
2022-10-07T19:42:03.596Z,86.28
2022-10-07T19:44:05.869Z,72.75
2022-10-07T19:46:08.555Z,75.07
2022-10-07T19:48:14.171Z,67.63
2022-10-07T19:50:16.402Z,66.97
2022-10-07T19:52:18.267Z,113.78
2022-10-07T19:54:20.052Z,105.47
2022-10-07T19:56:37.087Z,61.40
2022-10-07T19:58:38.912Z,92.72
2022-10-07T20:00:40.655Z,86.22
2022-10-07T20:02:42.424Z,51.13
2022-10-07T20:04:44.452Z,206.77
2022-10-07T20:06:46.565Z,117.40
2022-10-07T20:08:48.392Z,164.38
2022-10-07T20:10:50.365Z,71.03
2022-10-07T20:12:52.672Z,55.15
2022-10-07T20:14:54.360Z,124.70
2022-10-07T20:16:56.403Z,53.35
2022-10-07T20:19:01.871Z,48.33
2022-10-07T20:21:06.939Z,57.33
2022-10-07T20:23:08.774Z,51.28
2022-10-07T20:25:10.542Z,59.85
2022-10-07T20:27:12.300Z,48.60
2022-10-07T20:29:14.255Z,107.07
2022-10-07T20:31:18.868Z,101.93
2022-10-07T20:33:20.583Z,43.97
2022-10-07T20:35:22.371Z,113.82
2022-10-07T20:37:24.172Z,93.53
2022-10-07T20:39:25.916Z,118.75
2022-10-07T20:41:28.591Z,47.10
2022-10-07T20:43:30.326Z,53.70
2022-10-07T20:45:32.143Z,50.53
2022-10-07T20:47:35.166Z,62.92
2022-10-07T20:49:37.849Z,63.17
2022-10-07T20:51:39.550Z,50.10
2022-10-07T20:53:41.301Z,55.47
2022-10-07T20:55:43.086Z,57.90
2022-10-07T20:57:44.766Z,54.17
2022-10-07T20:59:46.557Z,49.72
2022-10-07T21:01:48.350Z,95.57
2022-10-07T21:03:50.049Z,55.42
2022-10-07T21:05:57.802Z,56.78
2022-10-07T21:07:59.540Z,59.47
2022-10-07T21:10:02.029Z,52.90
2022-10-07T21:12:05.887Z,51.05
2022-10-07T21:14:07.627Z,55.50
2022-10-07T21:16:09.333Z,59.05
2022-10-07T21:18:11.187Z,62.58
2022-10-07T21:20:12.923Z,47.08
2022-10-07T21:22:14.655Z,53.10
2022-10-07T21:24:16.937Z,78.00
2022-10-07T21:26:20.105Z,51.85
2022-10-07T21:28:21.896Z,59.83
2022-10-07T21:30:24.010Z,47.10
2022-10-07T21:32:25.970Z,51.15
2022-10-07T21:34:27.674Z,44.67
2022-10-07T21:36:29.660Z,53.35
2022-10-07T21:38:31.495Z,53.45
2022-10-07T21:40:33.166Z,47.45
2022-10-07T21:42:34.960Z,48.63
2022-10-07T21:44:36.764Z,47.55
2022-10-07T21:46:39.638Z,45.78
2022-10-07T21:48:41.497Z,39.53
2022-10-07T21:50:43.409Z,38.13
2022-10-07T21:52:45.642Z,43.67
2022-10-07T21:54:47.600Z,41.42
2022-10-07T21:56:49.300Z,38.35
2022-10-07T21:58:50.984Z,42.38
2022-10-07T22:00:52.899Z,45.38
2022-10-07T22:02:54.647Z,43.08
2022-10-07T22:04:56.661Z,42.78
2022-10-07T22:06:58.506Z,42.67
2022-10-07T22:09:00.181Z,42.00
2022-10-07T22:11:04.278Z,40.55
2022-10-07T22:13:06.101Z,44.65
2022-10-07T22:15:08.128Z,46.38
2022-10-07T22:17:10.075Z,42.97
2022-10-07T22:19:12.132Z,46.38
2022-10-07T22:21:16.266Z,40.90
2022-10-07T22:23:18.080Z,42.03
2022-10-07T22:25:20.034Z,39.63
2022-10-07T22:27:21.762Z,42.47
2022-10-07T22:29:23.716Z,40.60
2022-10-07T22:31:25.801Z,42.53
2022-10-07T22:33:27.539Z,36.85
2022-10-07T22:35:29.300Z,43.15
2022-10-07T22:37:31.006Z,38.50
2022-10-07T22:39:32.684Z,38.72
2022-10-07T22:41:34.450Z,38.42
2022-10-07T22:43:37.809Z,33.88
2022-10-07T22:45:39.605Z,35.60
2022-10-07T22:47:41.554Z,38.15
2022-10-07T22:49:43.395Z,37.50
2022-10-07T22:51:45.073Z,33.67
2022-10-07T22:53:51.842Z,35.88
2022-10-07T22:55:53.539Z,36.70
2022-10-07T22:57:55.251Z,36.45
2022-10-07T22:59:57.489Z,33.75
2022-10-07T23:01:59.168Z,34.58
2022-10-07T23:04:01.945Z,34.08
2022-10-07T23:06:04.322Z,36.23
2022-10-07T23:08:05.998Z,37.85
2022-10-07T23:10:08.262Z,35.60
2022-10-07T23:12:10.066Z,37.50
2022-10-07T23:14:11.849Z,35.28
2022-10-07T23:16:16.329Z,35.92
2022-10-07T23:18:18.217Z,36.60
2022-10-07T23:20:19.963Z,33.10
2022-10-07T23:22:21.654Z,35.70
2022-10-07T23:24:23.523Z,37.88
2022-10-07T23:26:27.234Z,33.60
2022-10-07T23:30:30.704Z,35.97
2022-10-07T23:32:32.510Z,34.08
2022-10-07T23:34:34.208Z,32.30
2022-10-07T23:36:35.959Z,32.75
2022-10-07T23:38:39.441Z,31.48
2022-10-07T23:40:41.177Z,32.33
2022-10-07T23:42:42.948Z,35.53
2022-10-07T23:44:44.634Z,30.52
2022-10-07T23:46:46.405Z,31.70
2022-10-07T23:48:48.591Z,31.27
2022-10-07T23:50:51.302Z,34.17
2022-10-07T23:52:53.030Z,48.85
2022-10-07T23:54:54.899Z,49.75
2022-10-07T23:56:56.582Z,54.28
2022-10-07T23:58:58.321Z,38.45
